Time;durP1;ratioP1;P1;durP2;ratioP2;P2;SDS_P1;SDS_P2;PMS_P1;PMS_P2;Temp;Humidity;BMP_temperature;BMP_pressure;BME280_temperature;BME280_humidity;BME280_pressure;Samples;Min_cycle;Max_cycle;Signal;HPM_P1;HPM_P2
2024/03/21 00:02:20;;;;;;;7.18;2.50;;;10.10;99.90;;;;;;4969959;28;20046;-72
2024/03/21 00:04:47;;;;;;;6.22;2.67;;;10.20;99.90;;;;;;4968099;28;20700;-70
2024/03/21 00:07:15;;;;;;;4.07;2.60;;;10.20;99.90;;;;;;4937399;29;20031;-71
2024/03/21 00:09:42;;;;;;;6.68;2.85;;;10.30;99.90;;;;;;4951626;29;20594;-70
2024/03/21 00:12:10;;;;;;;5.30;2.42;;;10.40;99.90;;;;;;4969582;28;20038;-70
2024/03/21 00:14:36;;;;;;;5.60;2.63;;;10.50;99.90;;;;;;4967934;28;20130;-70
2024/03/21 00:17:01;;;;;;;3.72;2.75;;;10.50;99.90;;;;;;4969403;28;20122;-70
2024/03/21 00:19:28;;;;;;;6.28;2.30;;;10.40;99.90;;;;;;4968512;28;20058;-70
2024/03/21 00:21:54;;;;;;;3.88;2.38;;;10.20;99.90;;;;;;4937830;29;20051;-71
2024/03/21 00:24:20;;;;;;;4.78;2.47;;;10.10;99.90;;;;;;4951660;28;20102;-70
2024/03/21 00:26:46;;;;;;;3.35;2.15;;;10.00;99.90;;;;;;4953174;28;20038;-70
2024/03/21 00:29:12;;;;;;;3.33;1.80;;;9.90;99.90;;;;;;4952160;28;20478;-70
2024/03/21 00:31:39;;;;;;;12.60;2.10;;;9.90;99.90;;;;;;4953524;28;20035;-70
2024/03/21 00:34:06;;;;;;;3.67;2.10;;;9.80;99.90;;;;;;4936278;29;20369;-70
2024/03/21 00:36:32;;;;;;;4.65;2.65;;;9.70;99.90;;;;;;4952816;28;20035;-71
2024/03/21 00:38:58;;;;;;;12.57;2.55;;;9.60;99.90;;;;;;4951808;28;20118;-70
2024/03/21 00:41:24;;;;;;;4.18;2.15;;;9.50;99.90;;;;;;4952084;28;20035;-70
2024/03/21 00:43:50;;;;;;;3.67;2.25;;;9.30;99.90;;;;;;4952053;28;20070;-71
2024/03/21 00:46:16;;;;;;;6.95;2.58;;;9.10;99.90;;;;;;4968373;28;20512;-71
2024/03/21 00:48:41;;;;;;;3.67;1.92;;;9.00;99.90;;;;;;4934994;29;20542;-71
2024/03/21 00:51:09;;;;;;;7.55;2.15;;;8.90;99.90;;;;;;4953417;28;20373;-71
2024/03/21 00:53:34;;;;;;;3.60;1.83;;;8.90;99.90;;;;;;4935698;28;20035;-71
2024/03/21 00:56:00;;;;;;;4.75;1.85;;;8.90;99.90;;;;;;4952643;28;20062;-71
2024/03/21 00:58:26;;;;;;;3.08;1.58;;;8.90;99.90;;;;;;4952509;28;20399;-71
2024/03/21 01:00:52;;;;;;;4.88;2.15;;;8.80;99.90;;;;;;4954841;28;20610;-71
2024/03/21 01:03:18;;;;;;;4.93;2.13;;;8.90;99.90;;;;;;4953212;28;20035;-71
2024/03/21 01:05:51;;;;;;;4.82;2.33;;;9.00;99.90;;;;;;4951922;29;20027;-71
2024/03/21 01:08:19;;;;;;;5.25;2.25;;;9.00;99.90;;;;;;4968727;28;20439;-70
2024/03/21 01:10:52;;;;;;;5.68;1.92;;;9.00;99.90;;;;;;4953064;29;20035;-70
2024/03/21 01:13:21;;;;;;;6.80;1.80;;;9.10;99.90;;;;;;4953865;28;20484;-70
2024/03/21 01:15:47;;;;;;;6.25;2.42;;;9.20;99.90;;;;;;4951142;28;20077;-70
2024/03/21 01:18:13;;;;;;;4.15;2.50;;;9.30;99.90;;;;;;4953527;28;20035;-73
2024/03/21 01:20:41;;;;;;;3.10;1.85;;;9.40;99.90;;;;;;4951281;28;20032;-71
2024/03/21 01:23:08;;;;;;;2.50;1.60;;;9.30;99.90;;;;;;4968081;28;20048;-70
2024/03/21 01:25:34;;;;;;;4.60;2.28;;;9.20;99.90;;;;;;4952212;28;20046;-70
2024/03/21 01:28:03;;;;;;;4.15;2.40;;;9.20;99.90;;;;;;4953338;28;20019;-70
2024/03/21 01:30:33;;;;;;;5.50;2.22;;;9.20;99.90;;;;;;4951457;29;20029;-70
2024/03/21 01:33:00;;;;;;;12.20;3.10;;;9.20;99.90;;;;;;4952132;28;20365;-70
2024/03/21 01:35:27;;;;;;;6.82;2.60;;;9.30;99.90;;;;;;4948985;28;20035;-70
2024/03/21 01:37:56;;;;;;;4.57;2.00;;;9.30;99.90;;;;;;4953587;29;20042;-69
2024/03/21 01:40:22;;;;;;;9.65;3.22;;;9.40;99.90;;;;;;4949628;28;20035;-70
2024/03/21 01:42:49;;;;;;;6.25;2.78;;;9.50;99.90;;;;;;4951910;29;20047;-70
2024/03/21 01:45:17;;;;;;;6.47;2.30;;;9.60;99.90;;;;;;4949674;28;20031;-70
2024/03/21 01:47:43;;;;;;;5.90;2.53;;;9.70;99.90;;;;;;4953277;29;20041;-70
2024/03/21 01:50:09;;;;;;;5.68;1.85;;;9.80;99.90;;;;;;4950846;28;20027;-70
2024/03/21 01:52:36;;;;;;;4.18;1.90;;;9.70;99.90;;;;;;4951927;28;20388;-70
2024/03/21 01:55:06;;;;;;;4.78;2.42;;;9.70;99.90;;;;;;4965867;28;20118;-71
2024/03/21 01:57:33;;;;;;;2.65;1.50;;;9.60;99.90;;;;;;4967513;28;20046;-70
2024/03/21 01:59:59;;;;;;;4.43;1.88;;;9.40;99.90;;;;;;4965667;28;20114;-70
2024/03/21 02:02:28;;;;;;;4.03;1.77;;;9.50;99.90;;;;;;4951520;29;20117;-70
2024/03/21 02:04:54;;;;;;;7.97;2.13;;;9.40;99.90;;;;;;4947724;28;20054;-71
2024/03/21 02:07:21;;;;;;;4.50;2.47;;;9.20;99.90;;;;;;4934439;29;20055;-70
2024/03/21 02:09:49;;;;;;;4.00;2.10;;;9.00;99.90;;;;;;4950092;28;20520;-70
2024/03/21 02:12:48;;;;;;;4.47;2.28;;;9.00;99.90;;;;;;4955683;28;20503;-72
2024/03/21 02:15:14;;;;;;;4.60;1.90;;;8.90;99.90;;;;;;4946784;28;20024;-71
2024/03/21 02:17:41;;;;;;;6.57;3.15;;;8.80;99.90;;;;;;4949985;28;20041;-72
2024/03/21 02:20:08;;;;;;;4.20;2.22;;;8.90;99.90;;;;;;4933179;29;20404;-70
2024/03/21 02:22:37;;;;;;;6.45;2.38;;;8.80;99.90;;;;;;4949790;28;20034;-70
2024/03/21 02:25:09;;;;;;;14.18;2.20;;;9.00;99.90;;;;;;4954720;28;20038;-70
2024/03/21 02:27:40;;;;;;;4.05;2.15;;;8.90;99.90;;;;;;4950694;28;20031;-70
2024/03/21 02:30:08;;;;;;;6.53;2.00;;;9.00;99.90;;;;;;4945416;29;20034;-70
2024/03/21 02:32:35;;;;;;;6.65;2.67;;;9.00;99.90;;;;;;4951040;28;20270;-70
2024/03/21 02:35:05;;;;;;;5.78;2.47;;;9.10;99.90;;;;;;4947090;28;20099;-70
2024/03/21 02:37:32;;;;;;;3.25;1.80;;;9.00;99.90;;;;;;4951968;28;20062;-70
2024/03/21 02:39:57;;;;;;;4.90;2.15;;;9.00;99.90;;;;;;4935405;28;20035;-70
2024/03/21 02:42:24;;;;;;;6.72;2.70;;;9.00;99.90;;;;;;4951403;28;20058;-70
2024/03/21 02:44:51;;;;;;;5.22;2.30;;;9.00;99.90;;;;;;4951502;28;20046;-70
2024/03/21 02:47:18;;;;;;;9.52;3.45;;;9.10;99.90;;;;;;4946235;28;20472;-70
2024/03/21 02:49:44;;;;;;;7.18;2.42;;;9.10;99.90;;;;;;4935794;29;20086;-70
2024/03/21 02:52:10;;;;;;;6.53;2.95;;;9.20;99.90;;;;;;4946105;28;20035;-70
2024/03/21 02:54:36;;;;;;;7.47;2.25;;;9.30;99.90;;;;;;4934407;28;20034;-71
2024/03/21 02:57:04;;;;;;;5.72;2.72;;;9.30;99.90;;;;;;4928790;29;20042;-73
2024/03/21 02:59:33;;;;;;;5.95;2.45;;;9.30;99.90;;;;;;4934481;28;20043;-71
2024/03/21 03:01:59;;;;;;;8.73;3.42;;;9.40;99.90;;;;;;4945675;28;20039;-71
2024/03/21 03:04:25;;;;;;;4.80;2.65;;;9.40;99.90;;;;;;4940892;28;20027;-71
2024/03/21 03:06:51;;;;;;;10.23;2.03;;;9.30;99.90;;;;;;4947854;28;20139;-71
2024/03/21 03:09:17;;;;;;;5.57;2.55;;;9.20;99.90;;;;;;4955956;28;20019;-71
2024/03/21 03:11:43;;;;;;;8.07;3.67;;;9.30;99.90;;;;;;4966331;28;20024;-71
2024/03/21 03:14:10;;;;;;;6.80;3.30;;;9.30;99.90;;;;;;4938416;28;20544;-72
2024/03/21 03:16:35;;;;;;;11.85;4.20;;;9.30;99.90;;;;;;4955897;28;20031;-72
2024/03/21 03:19:02;;;;;;;10.43;3.97;;;9.30;99.90;;;;;;4937830;29;20526;-73
2024/03/21 03:21:28;;;;;;;7.25;3.65;;;9.30;99.90;;;;;;4967429;28;20088;-73
2024/03/21 03:23:54;;;;;;;5.25;2.90;;;9.30;99.90;;;;;;4962509;28;20514;-71
2024/03/21 03:26:20;;;;;;;7.40;3.85;;;9.20;99.90;;;;;;4966178;28;20062;-70
2024/03/21 03:28:45;;;;;;;9.98;3.50;;;9.10;99.90;;;;;;4957580;28;20476;-71
2024/03/21 03:31:12;;;;;;;10.85;3.25;;;9.00;99.90;;;;;;4935668;29;20082;-71
2024/03/21 03:36:22;;;;;;;6.00;2.58;;;8.90;99.90;;;;;;4949259;28;20035;-70
2024/03/21 03:38:48;;;;;;;6.43;3.33;;;8.90;99.90;;;;;;4954139;28;20031;-73
2024/03/21 03:41:15;;;;;;;5.00;3.03;;;8.90;99.90;;;;;;4935109;29;20028;-74
2024/03/21 03:43:41;;;;;;;4.80;2.45;;;9.00;99.90;;;;;;4936904;28;20049;-74
2024/03/21 03:46:07;;;;;;;5.75;2.65;;;8.90;99.90;;;;;;4948057;28;20548;-73
2024/03/21 03:48:33;;;;;;;10.20;3.22;;;8.80;99.90;;;;;;4953457;28;20074;-73
2024/03/21 03:50:58;;;;;;;6.28;2.75;;;8.90;99.90;;;;;;4949726;28;20619;-74
2024/03/21 03:53:24;;;;;;;5.50;2.95;;;8.80;99.90;;;;;;4942846;28;20043;-74
2024/03/21 03:55:50;;;;;;;7.25;2.70;;;8.80;99.90;;;;;;4945484;28;20062;-73
2024/03/21 03:58:15;;;;;;;6.88;3.72;;;8.80;99.90;;;;;;4946477;28;20062;-73
2024/03/21 04:00:41;;;;;;;6.32;3.55;;;8.80;99.90;;;;;;4947731;28;20046;-73
2024/03/21 04:03:07;;;;;;;12.55;3.90;;;8.80;99.90;;;;;;4949832;28;20033;-74
2024/03/21 04:05:33;;;;;;;7.25;3.50;;;8.90;99.90;;;;;;4953210;28;20031;-74
2024/03/21 04:07:58;;;;;;;14.38;4.15;;;8.90;99.90;;;;;;4945515;28;20480;-74
2024/03/21 04:10:24;;;;;;;5.78;2.95;;;9.00;99.90;;;;;;4939888;28;20090;-76
2024/03/21 04:12:50;;;;;;;6.88;3.75;;;9.00;99.90;;;;;;4941755;28;20034;-74
2024/03/21 04:15:16;;;;;;;16.05;3.42;;;8.90;99.90;;;;;;4941106;28;20408;-74
2024/03/21 04:17:41;;;;;;;7.10;3.50;;;8.90;99.90;;;;;;4952834;29;20043;-74
2024/03/21 04:20:08;;;;;;;4.97;2.58;;;8.90;99.90;;;;;;4948404;28;20035;-74
2024/03/21 04:22:34;;;;;;;3.85;1.95;;;8.80;99.90;;;;;;4969525;28;20039;-74
2024/03/21 04:25:05;;;;;;;4.65;2.80;;;8.70;99.90;;;;;;4932996;29;20078;-74
2024/03/21 04:27:32;;;;;;;4.63;2.45;;;8.60;99.90;;;;;;4941872;28;20448;-74
2024/03/21 04:29:59;;;;;;;6.65;3.22;;;8.40;99.90;;;;;;4948772;28;20098;-74
2024/03/21 04:32:25;;;;;;;11.23;2.67;;;8.30;99.90;;;;;;4963875;28;20031;-74
2024/03/21 04:34:51;;;;;;;4.72;2.45;;;8.30;99.90;;;;;;4953815;28;20062;-74
2024/03/21 04:37:18;;;;;;;3.95;2.20;;;8.30;99.90;;;;;;4953569;28;20054;-75
2024/03/21 04:39:45;;;;;;;3.95;2.17;;;8.30;99.90;;;;;;4951719;28;20663;-75
2024/03/21 04:42:16;;;;;;;7.38;2.78;;;8.40;99.90;;;;;;4937431;29;20090;-75
2024/03/21 04:44:43;;;;;;;2.95;2.03;;;8.40;99.90;;;;;;4951143;28;20030;-74
2024/03/21 04:47:09;;;;;;;4.40;2.50;;;8.50;99.90;;;;;;4952875;28;20027;-74
2024/03/21 04:49:35;;;;;;;5.88;3.42;;;8.40;99.90;;;;;;4952278;28;20035;-75
2024/03/21 04:52:01;;;;;;;4.53;2.25;;;8.40;99.90;;;;;;4954761;28;20030;-74
2024/03/21 04:54:27;;;;;;;3.60;2.10;;;8.50;99.90;;;;;;4952620;28;20079;-74
2024/03/21 04:56:53;;;;;;;4.32;2.25;;;8.50;99.90;;;;;;4952710;28;20051;-74
2024/03/21 04:59:21;;;;;;;5.85;2.30;;;8.50;99.90;;;;;;4951581;28;20039;-74
2024/03/21 05:01:47;;;;;;;4.18;1.90;;;8.50;99.90;;;;;;4952899;28;20174;-74
2024/03/21 05:04:13;;;;;;;3.70;2.17;;;8.50;99.90;;;;;;4936343;29;20118;-75
2024/03/21 05:06:38;;;;;;;3.25;1.80;;;8.50;99.90;;;;;;4949628;28;20040;-74
2024/03/21 05:09:04;;;;;;;4.50;1.83;;;8.50;99.90;;;;;;4955557;28;20030;-74
2024/03/21 05:11:30;;;;;;;3.55;2.00;;;8.60;99.90;;;;;;4948402;28;20035;-74
2024/03/21 05:13:55;;;;;;;3.40;1.85;;;8.60;99.90;;;;;;4937304;28;22035;-75
2024/03/21 05:16:23;;;;;;;5.35;1.85;;;8.60;99.90;;;;;;4949770;28;20122;-74
2024/03/21 05:18:49;;;;;;;6.38;2.03;;;8.70;99.90;;;;;;4948717;28;20042;-75
2024/03/21 05:21:15;;;;;;;3.28;1.95;;;8.70;99.90;;;;;;4952707;28;20404;-75
2024/03/21 05:23:40;;;;;;;3.42;1.52;;;8.70;99.90;;;;;;4952674;28;20027;-74
2024/03/21 05:26:06;;;;;;;4.07;2.05;;;8.80;99.90;;;;;;4944954;28;20042;-75
2024/03/21 05:28:32;;;;;;;4.35;2.22;;;8.90;99.90;;;;;;4949809;29;20046;-75
2024/03/21 05:30:57;;;;;;;4.20;1.98;;;9.00;99.90;;;;;;4949504;28;20034;-75
2024/03/21 05:33:23;;;;;;;6.15;2.17;;;9.20;99.90;;;;;;4929748;29;20035;-72
2024/03/21 05:35:49;;;;;;;7.82;3.42;;;9.30;99.90;;;;;;4956843;28;20205;-75
2024/03/21 05:38:14;;;;;;;5.15;2.53;;;9.30;99.90;;;;;;4957140;28;20047;-73
2024/03/21 05:40:44;;;;;;;3.50;2.25;;;9.30;99.90;;;;;;4940286;28;20031;-73
2024/03/21 05:43:09;;;;;;;11.90;3.38;;;9.30;99.90;;;;;;4953322;29;20034;-73
2024/03/21 05:45:35;;;;;;;13.80;4.20;;;9.30;99.90;;;;;;4949993;28;20027;-72
2024/03/21 05:48:02;;;;;;;5.90;2.20;;;9.30;99.90;;;;;;4968412;28;20039;-72
2024/03/21 05:50:27;;;;;;;3.17;1.98;;;9.30;99.90;;;;;;4938485;28;20043;-72
2024/03/21 05:52:53;;;;;;;5.00;2.33;;;9.10;99.90;;;;;;4936249;29;20034;-72
2024/03/21 05:55:19;;;;;;;24.40;10.07;;;9.10;99.90;;;;;;4938078;28;20097;-72
2024/03/21 05:57:44;;;;;;;9.80;4.00;;;9.20;99.90;;;;;;4966682;28;20086;-73
2024/03/21 06:00:16;;;;;;;3.40;1.63;;;8.90;99.90;;;;;;4953628;28;20434;-72
2024/03/21 06:02:42;;;;;;;2.72;2.13;;;9.00;99.90;;;;;;4943454;28;20503;-72
2024/03/21 06:05:08;;;;;;;5.32;3.03;;;9.00;99.90;;;;;;4967464;28;20031;-72
2024/03/21 06:07:34;;;;;;;9.88;2.40;;;9.00;99.90;;;;;;4929987;29;20090;-72
2024/03/21 06:10:00;;;;;;;3.47;1.80;;;9.00;99.90;;;;;;4968585;28;20027;-72
2024/03/21 06:12:25;;;;;;;4.28;2.08;;;9.10;99.90;;;;;;4930775;29;20425;-72
2024/03/21 06:14:51;;;;;;;3.55;1.63;;;9.10;99.90;;;;;;4953778;28;20106;-73
2024/03/21 06:17:17;;;;;;;5.78;2.63;;;9.20;99.90;;;;;;4944388;28;20449;-72
2024/03/21 06:19:42;;;;;;;4.88;2.15;;;9.20;99.90;;;;;;4951283;28;20039;-72
2024/03/21 06:22:08;;;;;;;3.85;2.00;;;9.10;99.90;;;;;;4946423;28;20031;-72
2024/03/21 06:24:34;;;;;;;7.78;2.22;;;9.10;99.90;;;;;;4938473;28;20035;-73
2024/03/21 06:27:00;;;;;;;14.95;2.20;;;9.10;99.90;;;;;;4939234;28;20031;-72
2024/03/21 06:29:28;;;;;;;6.80;3.22;;;9.00;99.90;;;;;;4940380;28;20034;-72
2024/03/21 06:31:54;;;;;;;3.53;1.80;;;8.90;99.90;;;;;;4946803;29;20042;-73
2024/03/21 06:34:20;;;;;;;4.43;2.10;;;9.00;99.90;;;;;;4953232;28;20038;-72
2024/03/21 06:36:46;;;;;;;2.53;1.83;;;9.00;99.90;;;;;;4950410;28;20174;-72
2024/03/21 06:39:13;;;;;;;8.85;3.05;;;9.10;99.90;;;;;;4950548;28;20052;-73
2024/03/21 06:41:40;;;;;;;6.20;2.65;;;9.30;99.90;;;;;;4971689;28;20035;-72
2024/03/21 06:44:06;;;;;;;5.95;2.80;;;9.50;99.90;;;;;;4954643;28;20090;-71
2024/03/21 06:46:31;;;;;;;4.38;2.45;;;9.50;99.90;;;;;;4947872;29;20043;-71
2024/03/21 06:48:57;;;;;;;3.83;2.20;;;9.60;99.90;;;;;;4952222;28;20361;-71
2024/03/21 06:51:23;;;;;;;4.45;2.47;;;9.60;99.90;;;;;;4962673;28;20038;-72
2024/03/21 06:53:49;;;;;;;7.65;3.05;;;9.60;99.90;;;;;;4955466;28;20031;-72
2024/03/21 06:56:15;;;;;;;3.85;2.00;;;9.60;99.90;;;;;;4950461;28;20031;-72
2024/03/21 06:58:40;;;;;;;10.02;2.75;;;9.60;99.90;;;;;;4948665;28;20115;-72
2024/03/21 07:01:06;;;;;;;4.88;2.67;;;9.70;99.90;;;;;;4956850;28;20031;-72
2024/03/21 07:03:32;;;;;;;3.92;2.60;;;9.70;99.90;;;;;;4970747;28;20039;-72
2024/03/21 07:05:58;;;;;;;7.15;3.25;;;9.80;99.90;;;;;;4956056;28;20023;-73
2024/03/21 07:08:23;;;;;;;4.97;2.35;;;9.90;99.90;;;;;;4950328;28;20058;-75
2024/03/21 07:10:52;;;;;;;4.88;2.80;;;10.00;99.90;;;;;;4951938;29;20129;-72
2024/03/21 07:13:18;;;;;;;5.53;3.33;;;10.00;99.90;;;;;;4972930;28;20051;-72
2024/03/21 07:15:44;;;;;;;6.57;3.08;;;10.20;99.90;;;;;;4950601;28;20035;-73
2024/03/21 07:18:13;;;;;;;5.97;2.95;;;10.20;99.90;;;;;;4956840;28;20434;-74
2024/03/21 07:20:40;;;;;;;10.18;4.20;;;10.10;99.90;;;;;;4951608;28;20098;-73
2024/03/21 07:23:07;;;;;;;5.22;3.20;;;10.20;99.90;;;;;;4956321;28;20127;-73
2024/03/21 07:25:35;;;;;;;6.72;3.00;;;10.30;99.90;;;;;;4950369;28;20039;-73
2024/03/21 07:28:05;;;;;;;8.02;3.92;;;10.30;99.90;;;;;;4955992;28;20024;-74
2024/03/21 07:30:30;;;;;;;5.32;2.67;;;10.30;99.90;;;;;;4955744;28;20031;-74
2024/03/21 07:32:56;;;;;;;6.85;3.75;;;10.40;99.90;;;;;;4958365;28;20027;-73
2024/03/21 07:35:22;;;;;;;3.75;2.50;;;10.50;99.90;;;;;;4951807;28;20070;-73
2024/03/21 07:37:48;;;;;;;7.00;4.00;;;10.60;99.90;;;;;;4955312;28;20474;-72
2024/03/21 07:40:17;;;;;;;7.18;3.17;;;10.80;99.90;;;;;;4935315;29;20086;-72
2024/03/21 07:42:42;;;;;;;8.70;4.18;;;10.70;99.90;;;;;;4954650;28;20039;-74
2024/03/21 07:45:10;;;;;;;8.75;4.07;;;10.80;99.90;;;;;;4950429;28;20581;-74
2024/03/21 07:47:36;;;;;;;22.20;3.83;;;10.70;99.90;;;;;;4954071;28;20057;-72
2024/03/21 07:50:02;;;;;;;9.48;3.90;;;11.10;99.90;;;;;;4952033;29;20031;-72
2024/03/21 07:52:28;;;;;;;6.82;3.30;;;11.30;99.90;;;;;;4970411;28;20068;-72
2024/03/21 07:54:54;;;;;;;5.93;3.30;;;11.20;99.90;;;;;;4969154;28;20069;-72
2024/03/21 07:57:19;;;;;;;9.77;4.60;;;11.10;99.90;;;;;;4955390;28;20110;-71
2024/03/21 07:59:45;;;;;;;6.25;3.58;;;11.20;99.90;;;;;;4966656;28;20051;-72
2024/03/21 08:02:11;;;;;;;12.93;3.60;;;11.30;99.90;;;;;;4955488;28;20031;-71
2024/03/21 08:04:38;;;;;;;5.05;2.88;;;11.60;99.90;;;;;;4950237;29;20035;-71
2024/03/21 08:07:05;;;;;;;6.07;3.33;;;11.80;99.90;;;;;;4954979;29;20640;-71
2024/03/21 08:09:30;;;;;;;8.10;3.90;;;11.90;99.90;;;;;;4951881;28;20122;-72
2024/03/21 08:11:56;;;;;;;7.47;3.45;;;12.10;99.90;;;;;;4955262;28;20114;-70
2024/03/21 08:14:22;;;;;;;8.98;4.10;;;12.40;99.90;;;;;;4950671;28;20118;-69
2024/03/21 08:16:48;;;;;;;7.20;3.83;;;12.60;99.90;;;;;;4953664;28;20035;-69
2024/03/21 08:19:13;;;;;;;12.07;3.85;;;12.20;99.90;;;;;;4953287;28;20038;-69
2024/03/21 08:21:39;;;;;;;10.93;4.35;;;12.30;99.90;;;;;;4952901;29;20037;-69
2024/03/21 08:24:05;;;;;;;8.65;3.38;;;12.40;99.90;;;;;;4954671;28;20097;-69
2024/03/21 08:26:31;;;;;;;9.23;3.42;;;12.50;99.90;;;;;;4949834;28;20396;-69
2024/03/21 08:28:56;;;;;;;7.70;3.65;;;12.70;99.90;;;;;;4955005;29;20035;-69
2024/03/21 08:31:22;;;;;;;6.70;3.75;;;12.70;99.90;;;;;;4950743;29;20039;-70
2024/03/21 08:33:48;;;;;;;7.63;3.20;;;12.60;99.90;;;;;;4954431;28;20516;-70
2024/03/21 08:36:14;;;;;;;5.35;3.33;;;12.90;99.90;;;;;;4950245;28;20086;-70
2024/03/21 08:38:40;;;;;;;8.63;4.05;;;13.00;99.90;;;;;;4954635;28;20035;-70
2024/03/21 08:41:07;;;;;;;9.88;4.07;;;13.00;99.90;;;;;;4951071;28;20027;-70
2024/03/21 08:43:33;;;;;;;8.90;4.03;;;13.30;99.90;;;;;;4954494;28;20031;-69
2024/03/21 08:45:58;;;;;;;7.75;4.13;;;13.40;99.90;;;;;;4932696;29;20377;-69
2024/03/21 08:48:25;;;;;;;5.60;3.42;;;13.30;99.90;;;;;;4969395;28;20027;-69
2024/03/21 08:50:51;;;;;;;7.65;3.67;;;13.50;99.90;;;;;;4950584;28;20035;-69
2024/03/21 08:53:17;;;;;;;9.73;4.97;;;13.40;99.90;;;;;;4969224;28;20035;-69
2024/03/21 08:55:43;;;;;;;6.97;4.10;;;13.70;99.90;;;;;;4964745;28;20039;-69
2024/03/21 08:58:10;;;;;;;14.82;5.82;;;13.80;99.90;;;;;;4954376;28;20499;-69
2024/03/21 09:00:37;;;;;;;9.80;4.53;;;14.00;99.90;;;;;;4947974;28;20126;-69
2024/03/21 09:03:11;;;;;;;13.70;4.57;;;14.20;99.90;;;;;;4954306;28;20086;-69
2024/03/21 09:05:37;;;;;;;13.63;4.45;;;14.40;99.90;;;;;;4945900;28;20031;-69
2024/03/21 09:08:03;;;;;;;8.32;3.83;;;14.50;99.90;;;;;;4958107;28;20038;-68
2024/03/21 09:10:29;;;;;;;8.32;3.50;;;14.70;99.90;;;;;;4953790;28;20035;-69
2024/03/21 09:12:55;;;;;;;9.43;4.32;;;15.00;99.90;;;;;;4953773;29;20368;-69
2024/03/21 09:15:20;;;;;;;12.80;4.38;;;15.10;99.90;;;;;;4949280;28;20031;-69
2024/03/21 09:17:46;;;;;;;17.15;6.28;;;15.30;99.90;;;;;;4952305;28;20031;-68
2024/03/21 09:20:12;;;;;;;15.02;5.15;;;15.50;99.90;;;;;;4965087;28;20365;-68
2024/03/21 09:22:45;;;;;;;13.75;4.78;;;15.70;99.90;;;;;;5066414;28;20411;-69
2024/03/21 09:25:11;;;;;;;11.25;5.82;;;15.70;99.90;;;;;;5028304;28;20048;-69
2024/03/21 09:27:37;;;;;;;7.70;4.10;;;15.80;99.90;;;;;;5035947;28;20044;-69
2024/03/21 09:30:03;;;;;;;14.23;4.93;;;16.00;99.90;;;;;;5030250;28;20073;-69
2024/03/21 09:32:28;;;;;;;14.40;6.38;;;16.10;99.90;;;;;;5028762;28;20021;-69
2024/03/21 09:34:54;;;;;;;13.60;6.10;;;16.20;99.90;;;;;;5038749;28;20064;-70
2024/03/21 09:37:24;;;;;;;12.45;5.82;;;16.20;99.90;;;;;;5028514;28;20025;-69
2024/03/21 09:39:50;;;;;;;9.90;4.80;;;16.20;99.90;;;;;;5039109;28;20065;-68
2024/03/21 09:42:20;;;;;;;11.68;5.15;;;16.30;99.90;;;;;;5026671;28;20473;-69
2024/03/21 09:44:56;;;;;;;12.55;6.63;;;16.30;99.90;;;;;;5049917;23;20612;-73
2024/03/21 09:47:27;;;;;;;14.70;6.13;;;16.50;99.90;;;;;;5035848;28;20413;-74
2024/03/21 09:49:53;;;;;;;18.75;7.07;;;16.70;99.90;;;;;;5045249;28;20090;-73
2024/03/21 09:52:19;;;;;;;16.35;7.80;;;16.80;99.90;;;;;;5044098;28;20038;-74
2024/03/21 09:54:45;;;;;;;18.83;7.88;;;17.00;99.90;;;;;;5026549;28;20486;-73
2024/03/21 09:57:15;;;;;;;16.95;6.60;;;17.10;99.90;;;;;;5023488;28;20033;-73
2024/03/21 09:59:42;;;;;;;17.35;9.10;;;17.20;99.90;;;;;;5030256;28;20044;-74
2024/03/21 10:02:12;;;;;;;17.30;8.20;;;17.30;99.90;;;;;;5026941;28;20112;-73
2024/03/21 10:04:48;;;;;;;22.35;9.43;;;17.40;99.90;;;;;;5026057;28;20030;-73
2024/03/21 10:07:19;;;;;;;19.67;9.73;;;17.40;99.90;;;;;;5027762;28;20030;-72
2024/03/21 10:09:56;;;;;;;18.63;8.90;;;17.30;99.90;;;;;;5049479;28;20050;-72
2024/03/21 10:12:23;;;;;;;23.08;9.45;;;17.30;99.90;;;;;;5030886;28;20053;-71
2024/03/21 10:14:55;;;;;;;23.08;9.23;;;17.10;99.90;;;;;;5010278;28;20034;-72
2024/03/21 10:17:24;;;;;;;21.58;10.50;;;17.20;99.90;;;;;;5022533;28;20081;-73
2024/03/21 10:19:51;;;;;;;28.50;11.00;;;17.20;99.90;;;;;;5025753;28;20037;-72
2024/03/21 10:22:18;;;;;;;28.50;11.23;;;17.30;99.90;;;;;;5025534;28;20145;-73
2024/03/21 10:24:53;;;;;;;26.52;11.57;;;17.30;99.90;;;;;;5044673;28;20545;-73
2024/03/21 10:27:20;;;;;;;28.98;11.27;;;17.40;99.90;;;;;;5038054;28;20458;-74
2024/03/21 10:29:46;;;;;;;27.13;10.93;;;17.60;99.90;;;;;;5046754;28;20030;-73
2024/03/21 10:32:20;;;;;;;33.83;12.68;;;17.70;99.90;;;;;;5024713;28;20042;-73
2024/03/21 10:34:51;;;;;;;24.70;11.85;;;17.80;99.90;;;;;;5028862;28;20071;-73
2024/03/21 10:37:21;;;;;;;31.05;12.63;;;17.90;99.90;;;;;;5018930;28;20056;-73
2024/03/21 10:39:51;;;;;;;35.75;13.98;;;17.80;99.90;;;;;;5014442;28;20065;-72
2024/03/21 10:42:29;;;;;;;36.95;14.40;;;17.80;99.90;;;;;;5013299;28;20034;-73
2024/03/21 10:45:03;;;;;;;37.80;14.27;;;17.80;99.90;;;;;;5012817;28;20037;-73
2024/03/21 10:47:29;;;;;;;38.25;14.02;;;17.90;99.90;;;;;;5013057;28;20041;-73
2024/03/21 10:49:55;;;;;;;35.05;14.40;;;17.90;99.90;;;;;;5014296;28;20067;-73
2024/03/21 10:52:22;;;;;;;38.38;14.65;;;17.70;99.90;;;;;;5011389;28;20117;-73
2024/03/21 10:54:53;;;;;;;34.75;13.32;;;17.70;99.90;;;;;;4996679;28;20061;-74
2024/03/21 10:57:22;;;;;;;;;;;18.00;99.90;;;;;;5028556;28;20030;-73
2024/03/21 11:00:10;;;;;;;27.95;13.43;;;18.10;99.90;;;;;;4994979;28;19910;-74
2024/03/21 11:02:38;;;;;;;26.45;12.07;;;18.50;99.90;;;;;;4992869;28;20199;-73
2024/03/21 11:05:15;;;;;;;28.15;12.77;;;18.50;99.90;;;;;;5011805;28;20029;-73
2024/03/21 11:07:44;;;;;;;24.92;12.25;;;18.70;99.90;;;;;;4993278;28;20035;-73
2024/03/21 11:10:22;;;;;;;26.65;12.77;;;18.40;99.90;;;;;;5012323;28;20025;-72
2024/03/21 11:12:49;;;;;;;44.95;13.15;;;18.00;99.90;;;;;;5011766;28;20030;-72
2024/03/21 11:15:16;;;;;;;25.40;11.18;;;17.70;99.90;;;;;;5011467;28;20080;-72
2024/03/21 11:17:45;;;;;;;24.83;11.68;;;18.00;99.90;;;;;;5011763;28;20033;-72
2024/03/21 11:20:13;;;;;;;24.05;11.02;;;18.00;99.90;;;;;;5011908;28;20068;-72
2024/03/21 11:22:44;;;;;;;23.10;12.13;;;18.20;99.90;;;;;;5011179;28;20424;-72
2024/03/21 11:25:12;;;;;;;23.70;11.27;;;18.60;99.90;;;;;;5011252;28;20052;-72
2024/03/21 11:27:37;;;;;;;23.67;10.50;;;18.90;99.90;;;;;;5011990;28;20026;-72
2024/03/21 11:30:08;;;;;;;22.13;9.18;;;19.20;99.90;;;;;;4995648;28;20109;-72
2024/03/21 11:32:33;;;;;;;22.10;10.57;;;19.20;99.30;;;;;;5007867;28;20038;-73
2024/03/21 11:34:59;;;;;;;26.80;10.30;;;19.30;98.70;;;;;;5015988;28;20037;-73
2024/03/21 11:37:25;;;;;;;24.60;10.20;;;19.30;98.30;;;;;;5016059;28;20545;-73
2024/03/21 11:39:54;;;;;;;17.98;8.88;;;19.30;98.30;;;;;;5011601;28;20037;-73
2024/03/21 11:42:19;;;;;;;23.75;10.45;;;19.50;98.60;;;;;;5010885;28;20022;-72
2024/03/21 11:44:47;;;;;;;17.48;8.40;;;19.70;97.50;;;;;;5020042;28;20187;-73
2024/03/21 11:47:15;;;;;;;22.60;8.90;;;19.80;96.70;;;;;;5010606;28;20026;-73
2024/03/21 11:49:47;;;;;;;16.92;8.15;;;19.80;96.10;;;;;;5011171;28;20029;-73
2024/03/21 11:52:15;;;;;;;21.58;8.25;;;20.00;96.10;;;;;;5011202;28;20022;-73
2024/03/21 11:54:42;;;;;;;14.52;7.97;;;20.10;95.50;;;;;;5012254;28;20076;-73
2024/03/21 11:57:15;;;;;;;17.38;9.13;;;20.20;94.90;;;;;;5000094;28;20033;-73
2024/03/21 11:59:42;;;;;;;21.27;8.00;;;20.60;94.90;;;;;;5010243;28;20109;-73
2024/03/21 12:02:12;;;;;;;15.57;7.03;;;21.00;92.80;;;;;;5011208;28;20492;-73
2024/03/21 12:04:38;;;;;;;20.13;7.82;;;20.80;92.00;;;;;;5015539;28;20026;-73
2024/03/21 12:07:07;;;;;;;13.30;7.15;;;20.80;91.50;;;;;;4997998;28;20077;-73
2024/03/21 12:09:33;;;;;;;11.27;5.75;;;21.20;90.70;;;;;;4990962;28;20034;-72
2024/03/21 12:11:59;;;;;;;11.65;5.97;;;21.40;90.00;;;;;;4992435;28;20034;-73
2024/03/21 12:14:24;;;;;;;15.43;5.53;;;21.60;87.60;;;;;;4982409;28;20038;-73
2024/03/21 12:16:50;;;;;;;15.60;5.03;;;22.00;86.10;;;;;;5008411;28;20040;-72
2024/03/21 12:19:16;;;;;;;12.48;6.07;;;21.80;83.90;;;;;;4988341;28;20108;-72
2024/03/21 12:21:41;;;;;;;12.98;4.55;;;21.80;84.90;;;;;;5031687;28;20033;-72
2024/03/21 12:24:07;;;;;;;10.77;4.40;;;21.30;85.90;;;;;;5024375;28;20030;-72
2024/03/21 12:26:33;;;;;;;12.43;5.60;;;21.40;84.80;;;;;;5010213;28;20061;-73
2024/03/21 12:29:00;;;;;;;17.60;5.00;;;21.30;86.20;;;;;;5010566;28;20128;-73
2024/03/21 12:31:26;;;;;;;10.60;4.75;;;21.90;85.90;;;;;;5012140;28;20021;-73
2024/03/21 12:33:54;;;;;;;12.85;5.18;;;22.60;84.40;;;;;;5034410;28;20032;-73
2024/03/21 12:36:20;;;;;;;13.00;4.95;;;23.50;81.00;;;;;;5030725;28;20433;-73
2024/03/21 12:38:46;;;;;;;12.77;6.15;;;23.20;80.30;;;;;;5022134;28;20030;-72
2024/03/21 12:41:15;;;;;;;7.07;3.33;;;22.10;81.60;;;;;;5016868;28;20053;-73
2024/03/21 12:43:41;;;;;;;9.20;4.07;;;21.20;85.10;;;;;;5010610;28;20109;-73
2024/03/21 12:46:14;;;;;;;7.50;3.28;;;20.60;86.80;;;;;;5011173;28;20486;-72
2024/03/21 12:48:39;;;;;;;6.63;3.42;;;19.80;88.10;;;;;;5010652;28;20044;-73
2024/03/21 12:51:09;;;;;;;12.38;3.42;;;19.60;90.10;;;;;;5010276;28;20461;-73